Hauptseite
METAR-TAF:

METAR-TAF

Flughäfen :

Flughafen Treviso

Treviso, Italien

Breite: 45-39N, Länge: 012-11E, Höhe: 18 m

Beobachtung

Neuester Wetterbericht von vor 14 Minuten, um 01:50 UTC
Wind 3 kt aus Nord/Nordwest, variierte zwischen Nordwest und Nord
Temperatur 20°C
Luftfeuchtigkeit 94%
Luftdruck 1010 hPa
Sichtweite: 9000 m
Leichtregen

METAR: LIPH 170150Z AUTO 33003KT 310V010 9000 -RA FEW120/// BKN130/// 20/19 Q1010

Zeit: 04:04 (02:04 UTC)

Prognose

Neuester Wetterbericht von vor 3 Stunden und 4 Minuten, um 23:00 UTC
Gültige Prognose vom 17 um 00 UTC bis 17 um 24 UTC
Wind 5 kt aus unterschiedlichen Richtungen
Sichtweite 10 km oder mehr
Aufgelockert bewölkt in der Höhe von 4000 ft

TAF: LIPH 162300Z 1700/1724 VRB05KT 9999 SCT040

Wetterbeobachtungen und Prognosen von mehr als 4000 Flughäfen (METAR und TAF Bericht).

Die verfügbaren Stationen werden durch gelbe und rote Markierungen auf der Karte dargestellt.

Führen Sie die Maus auf sie, um den Namen der Station zu sehen.

Darauf klicken, um die Beobachtung von Wetterbeobachtungen und Prognosen zu sehen.

Um die Karte zu ändern : klicken Sie auf den grünen Tasten mit einem schwarzen Kreuz Zum Vergrößern, auf den grünen Button mit einem Gedankenstrich zu verkleinern, oder auf die grünen Pfeile für benachbarte Karten.


METAR-TAF: